createdAt,value
2024-03-28T00:01:23.481Z,96615.00
2024-03-28T00:02:23.542Z,96607.00
2024-03-28T00:03:23.528Z,96599.00
2024-03-28T00:04:23.534Z,96597.00
2024-03-28T00:05:23.606Z,96596.00
2024-03-28T00:06:23.558Z,96595.00
2024-03-28T00:07:23.511Z,96592.00
2024-03-28T00:08:23.511Z,96601.00
2024-03-28T00:09:23.520Z,96602.00
2024-03-28T00:10:23.568Z,96598.00
2024-03-28T00:11:23.532Z,96594.00
2024-03-28T00:13:23.555Z,96602.00
2024-03-28T00:14:23.536Z,96605.00
2024-03-28T00:15:23.560Z,96604.00
2024-03-28T00:16:23.545Z,96608.00
2024-03-28T00:17:23.582Z,96606.00
2024-03-28T00:18:23.571Z,96601.00
2024-03-28T00:19:30.374Z,96607.00
2024-03-28T00:20:23.609Z,96612.00
2024-03-28T00:21:23.642Z,96618.00
2024-03-28T00:22:23.655Z,96620.00
2024-03-28T00:23:23.659Z,96619.00
2024-03-28T00:24:23.690Z,96617.00
2024-03-28T00:25:23.670Z,96621.00
2024-03-28T00:26:23.755Z,96624.00
2024-03-28T00:27:24.728Z,96619.00
2024-03-28T00:28:23.711Z,96620.00
2024-03-28T00:29:23.761Z,96620.00
2024-03-28T00:30:23.784Z,96618.00
2024-03-28T00:31:23.813Z,96615.00
2024-03-28T00:33:23.803Z,96615.00
2024-03-28T00:34:23.811Z,96614.00
2024-03-28T00:35:23.810Z,96617.00
2024-03-28T00:36:23.818Z,96619.00
2024-03-28T00:37:23.847Z,96616.00
2024-03-28T00:38:23.863Z,96620.00
2024-03-28T00:40:23.871Z,96612.00
2024-03-28T00:42:23.889Z,96612.00
2024-03-28T00:43:23.897Z,96613.00
2024-03-28T00:44:23.900Z,96610.00
2024-03-28T00:45:23.911Z,96615.00
2024-03-28T00:46:23.919Z,96614.00
2024-03-28T00:47:23.949Z,96611.00
2024-03-28T00:48:23.997Z,96613.00
2024-03-28T00:49:24.014Z,96608.00
2024-03-28T00:50:24.010Z,96614.00
2024-03-28T00:51:24.027Z,96612.00
2024-03-28T00:52:24.070Z,96608.00
2024-03-28T00:53:24.071Z,96604.00
2024-03-28T00:54:24.082Z,96606.00
2024-03-28T00:55:24.052Z,96605.00
2024-03-28T00:57:24.102Z,96608.00
2024-03-28T00:58:24.127Z,96606.00
2024-03-28T00:59:24.114Z,96613.00
2024-03-28T01:00:24.188Z,96612.00
2024-03-28T01:01:24.191Z,96613.00
2024-03-28T01:02:24.204Z,96616.00
2024-03-28T01:03:24.187Z,96614.00
2024-03-28T01:04:24.208Z,96621.00
2024-03-28T01:05:24.217Z,96624.00
2024-03-28T01:06:24.238Z,96619.00
2024-03-28T01:07:24.283Z,96621.00
2024-03-28T01:08:24.280Z,96613.00
2024-03-28T01:09:24.345Z,96612.00
2024-03-28T01:10:24.348Z,96605.00
2024-03-28T01:11:24.359Z,96602.00
2024-03-28T01:12:24.348Z,96595.00
2024-03-28T01:13:24.383Z,96589.00
2024-03-28T01:14:24.390Z,96589.00
2024-03-28T01:15:24.390Z,96588.00
2024-03-28T01:16:24.412Z,96589.00
2024-03-28T01:17:24.399Z,96598.00
2024-03-28T01:18:24.442Z,96598.00
2024-03-28T01:19:24.419Z,96602.00
2024-03-28T01:20:24.427Z,96600.00
2024-03-28T01:21:24.434Z,96601.00
2024-03-28T01:22:24.473Z,96601.00
2024-03-28T01:24:24.484Z,96593.00
2024-03-28T01:25:24.514Z,96588.00
2024-03-28T01:26:24.496Z,96587.00
2024-03-28T01:27:24.512Z,96583.00
2024-03-28T01:28:24.548Z,96584.00
2024-03-28T01:29:24.537Z,96579.00
2024-03-28T01:30:24.563Z,96579.00
2024-03-28T01:31:24.588Z,96574.00
2024-03-28T01:32:24.623Z,96571.00
2024-03-28T01:33:24.631Z,96570.00
2024-03-28T01:34:24.620Z,96569.00
2024-03-28T01:35:24.632Z,96565.00
2024-03-28T01:36:24.635Z,96559.00
2024-03-28T01:37:24.627Z,96560.00
2024-03-28T01:38:24.671Z,96554.00
2024-03-28T01:39:24.602Z,96557.00
2024-03-28T01:40:24.621Z,96558.00
2024-03-28T01:41:24.680Z,96561.00
2024-03-28T01:42:24.673Z,96563.00
2024-03-28T01:43:24.663Z,96564.00
2024-03-28T01:44:24.704Z,96565.00
2024-03-28T01:45:24.732Z,96570.00
2024-03-28T01:46:35.728Z,96572.00
2024-03-28T01:47:41.958Z,96571.00
2024-03-28T01:48:24.704Z,96568.00
2024-03-28T01:49:24.721Z,96567.00
2024-03-28T01:50:24.765Z,96567.00
2024-03-28T01:51:24.735Z,96559.00
2024-03-28T01:52:24.747Z,96557.00
2024-03-28T01:53:24.752Z,96551.00
2024-03-28T01:54:24.797Z,96550.00
2024-03-28T01:55:25.785Z,96542.00
2024-03-28T01:56:24.834Z,96550.00
2024-03-28T01:57:24.774Z,96553.00
2024-03-28T01:58:24.788Z,96556.00
2024-03-28T01:59:24.827Z,96559.00
2024-03-28T02:00:24.848Z,96557.00
2024-03-28T02:01:24.809Z,96553.00
2024-03-28T02:02:24.826Z,96551.00
2024-03-28T02:03:24.833Z,96549.00
2024-03-28T02:04:24.864Z,96545.00
2024-03-28T02:06:24.862Z,96538.00
2024-03-28T02:07:24.909Z,96540.00
2024-03-28T02:08:24.888Z,96549.00
2024-03-28T02:09:24.896Z,96556.00
2024-03-28T02:10:24.911Z,96559.00
2024-03-28T02:11:24.929Z,96560.00
2024-03-28T02:12:24.927Z,96563.00
2024-03-28T02:13:24.932Z,96564.00
2024-03-28T02:14:24.986Z,96564.00
2024-03-28T02:15:25.042Z,96562.00
2024-03-28T02:16:25.006Z,96561.00
2024-03-28T02:17:25.039Z,96558.00
2024-03-28T02:18:25.069Z,96560.00
2024-03-28T02:19:25.046Z,96556.00
2024-03-28T02:20:25.263Z,96553.00
2024-03-28T02:21:25.145Z,96552.00
2024-03-28T02:22:25.120Z,96549.00
2024-03-28T02:23:25.165Z,96546.00
2024-03-28T02:24:25.167Z,96547.00
2024-03-28T02:25:25.181Z,96546.00
2024-03-28T02:26:25.226Z,96548.00
2024-03-28T02:27:25.204Z,96550.00
2024-03-28T02:28:25.178Z,96549.00
2024-03-28T02:29:25.205Z,96553.00
2024-03-28T02:30:25.193Z,96548.00
2024-03-28T02:31:25.227Z,96552.00
2024-03-28T02:32:25.209Z,96549.00
2024-03-28T02:33:25.234Z,96556.00
2024-03-28T02:34:25.244Z,96555.00
2024-03-28T02:35:25.252Z,96551.00
2024-03-28T02:36:25.270Z,96554.00
2024-03-28T02:37:25.299Z,96553.00
2024-03-28T02:38:25.314Z,96551.00
2024-03-28T02:39:25.330Z,96550.00
2024-03-28T02:40:25.377Z,96555.00
2024-03-28T02:41:25.400Z,96550.00
2024-03-28T02:42:25.399Z,96552.00
2024-03-28T02:43:25.364Z,96550.00
2024-03-28T02:44:25.408Z,96550.00
2024-03-28T02:45:25.421Z,96554.00
2024-03-28T02:46:25.441Z,96556.00
2024-03-28T02:47:25.479Z,96555.00
2024-03-28T02:48:25.484Z,96556.00
2024-03-28T02:49:25.468Z,96558.00
2024-03-28T02:50:25.490Z,96560.00
2024-03-28T02:52:25.518Z,96563.00
2024-03-28T02:53:25.485Z,96563.00
2024-03-28T02:54:25.517Z,96559.00
2024-03-28T02:55:25.506Z,96565.00
2024-03-28T02:56:25.510Z,96561.00
2024-03-28T02:57:25.544Z,96562.00
2024-03-28T02:58:25.523Z,96564.00
2024-03-28T02:59:25.563Z,96567.00
2024-03-28T03:00:25.567Z,96569.00
2024-03-28T03:01:25.576Z,96564.00
2024-03-28T03:02:25.622Z,96564.00
2024-03-28T03:03:25.625Z,96561.00
2024-03-28T03:04:25.631Z,96556.00
2024-03-28T03:05:25.664Z,96555.00
2024-03-28T03:06:25.657Z,96557.00
2024-03-28T03:07:25.675Z,96557.00
2024-03-28T03:08:25.699Z,96558.00
2024-03-28T03:09:25.683Z,96562.00
2024-03-28T03:10:25.690Z,96559.00
2024-03-28T03:11:25.702Z,96562.00
2024-03-28T03:12:25.706Z,96558.00
2024-03-28T03:13:25.761Z,96555.00
2024-03-28T03:14:25.758Z,96552.00
2024-03-28T03:15:25.775Z,96553.00
2024-03-28T03:16:25.819Z,96557.00
2024-03-28T03:17:25.794Z,96558.00
2024-03-28T03:18:27.842Z,96564.00
2024-03-28T03:19:25.845Z,96568.00
2024-03-28T03:20:25.854Z,96571.00
2024-03-28T03:21:25.856Z,96571.00
2024-03-28T03:22:25.868Z,96571.00
2024-03-28T03:23:25.876Z,96568.00
2024-03-28T03:24:25.893Z,96570.00
2024-03-28T03:25:25.936Z,96568.00
2024-03-28T03:26:25.903Z,96562.00
2024-03-28T03:27:25.905Z,96571.00
2024-03-28T03:28:25.920Z,96569.00
2024-03-28T03:29:25.932Z,96568.00
2024-03-28T03:30:25.947Z,96567.00
2024-03-28T03:31:25.942Z,96570.00
2024-03-28T03:32:25.977Z,96565.00
2024-03-28T03:33:26.007Z,96564.00
2024-03-28T03:34:25.976Z,96561.00
2024-03-28T03:35:25.985Z,96556.00
2024-03-28T03:36:26.026Z,96558.00
2024-03-28T03:37:25.994Z,96560.00
2024-03-28T03:38:26.035Z,96562.00
2024-03-28T03:39:26.043Z,96564.00
2024-03-28T03:40:26.011Z,96564.00
2024-03-28T03:41:26.017Z,96566.00
2024-03-28T03:42:26.038Z,96563.00
2024-03-28T03:43:26.019Z,96560.00
2024-03-28T03:44:26.032Z,96565.00
2024-03-28T03:45:26.014Z,96566.00
2024-03-28T03:46:26.027Z,96569.00
2024-03-28T03:47:26.029Z,96570.00
2024-03-28T03:48:26.060Z,96568.00
2024-03-28T03:49:26.073Z,96571.00
2024-03-28T03:50:26.051Z,96572.00
2024-03-28T03:51:26.057Z,96564.00
2024-03-28T03:52:26.086Z,96560.00
2024-03-28T03:53:26.175Z,96557.00
2024-03-28T03:54:26.142Z,96550.00
2024-03-28T03:55:26.120Z,96543.00
2024-03-28T03:56:26.197Z,96541.00
2024-03-28T03:57:26.170Z,96538.00
2024-03-28T03:58:26.233Z,96535.00
2024-03-28T03:59:26.215Z,96532.00
2024-03-28T04:00:26.217Z,96533.00
2024-03-28T04:01:26.206Z,96527.00
2024-03-28T04:02:26.200Z,96531.00
2024-03-28T04:03:26.241Z,96526.00
2024-03-28T04:04:26.255Z,96532.00
2024-03-28T04:05:26.279Z,96536.00
2024-03-28T04:06:26.261Z,96540.00
2024-03-28T04:07:26.276Z,96535.00
2024-03-28T04:08:26.281Z,96533.00
2024-03-28T04:09:26.286Z,96530.00
2024-03-28T04:10:26.331Z,96523.00
2024-03-28T04:11:26.365Z,96523.00
2024-03-28T04:12:26.329Z,96510.00
2024-03-28T04:13:26.333Z,96514.00
2024-03-28T04:14:26.344Z,96510.00
2024-03-28T04:15:26.391Z,96509.00
2024-03-28T04:16:26.456Z,96503.00
2024-03-28T04:17:26.444Z,96500.00
2024-03-28T04:18:26.422Z,96500.00
2024-03-28T04:19:26.451Z,96504.00
2024-03-28T04:20:26.456Z,96509.00
2024-03-28T04:21:26.460Z,96513.00
2024-03-28T04:22:26.461Z,96513.00
2024-03-28T04:23:26.491Z,96508.00
2024-03-28T04:24:26.505Z,96502.00
2024-03-28T04:25:26.521Z,96498.00
2024-03-28T04:26:26.516Z,96502.00
2024-03-28T04:27:26.513Z,96506.00
2024-03-28T04:28:26.518Z,96504.00
2024-03-28T04:29:26.549Z,96503.00
2024-03-28T04:30:26.652Z,96500.00
2024-03-28T04:31:26.574Z,96498.00
2024-03-28T04:32:26.605Z,96500.00
2024-03-28T04:33:26.577Z,96501.00
2024-03-28T04:34:26.586Z,96499.00
2024-03-28T04:35:26.597Z,96498.00
2024-03-28T04:36:26.617Z,96495.00
2024-03-28T04:37:26.724Z,96494.00
2024-03-28T04:38:26.603Z,96495.00
2024-03-28T04:39:26.644Z,96495.00
2024-03-28T04:40:26.628Z,96491.00
2024-03-28T04:41:26.636Z,96496.00
2024-03-28T04:42:26.673Z,96502.00
2024-03-28T04:43:26.652Z,96497.00
2024-03-28T04:47:26.724Z,96499.00
2024-03-28T04:48:26.738Z,96497.00
2024-03-28T04:49:26.783Z,96498.00
2024-03-28T04:50:26.785Z,96494.00
2024-03-28T04:51:26.771Z,96493.00
2024-03-28T04:52:26.825Z,96497.00
2024-03-28T04:53:26.820Z,96494.00
2024-03-28T04:54:26.823Z,96494.00
2024-03-28T04:55:27.958Z,96497.00
2024-03-28T04:56:26.874Z,96499.00
2024-03-28T04:57:26.865Z,96499.00
2024-03-28T04:58:26.873Z,96502.00
2024-03-28T04:59:26.864Z,96504.00
2024-03-28T05:00:26.911Z,96504.00
2024-03-28T05:01:26.884Z,96500.00
2024-03-28T05:02:26.880Z,96499.00
2024-03-28T05:03:26.932Z,96497.00
2024-03-28T05:04:26.900Z,96500.00
2024-03-28T05:05:26.907Z,96495.00
2024-03-28T05:06:26.911Z,96493.00
2024-03-28T05:07:26.962Z,96485.00
2024-03-28T05:08:26.970Z,96479.00
2024-03-28T05:09:26.990Z,96484.00
2024-03-28T05:10:27.043Z,96487.00
2024-03-28T05:11:27.014Z,96482.00
2024-03-28T05:12:27.022Z,96481.00
2024-03-28T05:13:27.125Z,96487.00
2024-03-28T05:14:27.093Z,96483.00
2024-03-28T05:15:27.142Z,96487.00
2024-03-28T05:16:27.107Z,96488.00
2024-03-28T05:17:27.109Z,96482.00
2024-03-28T05:18:27.074Z,96487.00
2024-03-28T05:19:27.094Z,96485.00
2024-03-28T05:20:27.110Z,96482.00
2024-03-28T05:21:27.155Z,96485.00
2024-03-28T05:22:27.190Z,96482.00
2024-03-28T05:23:27.106Z,96482.00
2024-03-28T05:24:27.119Z,96485.00
2024-03-28T05:25:27.156Z,96483.00
2024-03-28T05:26:27.196Z,96478.00
2024-03-28T05:27:28.770Z,96477.00
2024-03-28T05:28:27.237Z,96478.00
2024-03-28T05:29:27.205Z,96478.00
2024-03-28T05:30:27.271Z,96474.00
2024-03-28T05:31:27.250Z,96468.00
2024-03-28T05:32:27.282Z,96470.00
2024-03-28T05:33:27.300Z,96461.00
2024-03-28T05:34:27.375Z,96462.00
2024-03-28T05:35:27.315Z,96464.00
2024-03-28T05:36:27.326Z,96458.00
2024-03-28T05:37:27.461Z,96460.00
2024-03-28T05:38:27.387Z,96452.00
2024-03-28T05:39:27.361Z,96455.00
2024-03-28T05:40:27.411Z,96456.00
2024-03-28T05:41:27.374Z,96452.00
2024-03-28T05:42:27.371Z,96453.00
2024-03-28T05:43:27.391Z,96451.00
2024-03-28T05:44:27.395Z,96449.00
2024-03-28T05:45:27.401Z,96455.00
2024-03-28T05:46:27.426Z,96454.00
2024-03-28T05:47:27.397Z,96457.00
2024-03-28T05:48:27.411Z,96455.00
2024-03-28T05:49:27.429Z,96456.00
2024-03-28T05:50:27.425Z,96455.00
2024-03-28T05:51:27.441Z,96451.00
2024-03-28T05:52:27.516Z,96450.00
2024-03-28T05:54:27.503Z,96448.00
2024-03-28T05:55:28.332Z,96445.00
2024-03-28T05:56:27.524Z,96454.00
2024-03-28T05:57:27.536Z,96455.00
2024-03-28T05:58:27.562Z,96457.00
2024-03-28T05:59:27.603Z,96462.00
2024-03-28T06:00:27.706Z,96460.00
2024-03-28T06:01:27.612Z,96456.00
2024-03-28T06:02:27.633Z,96459.00
2024-03-28T06:03:28.594Z,96458.00
2024-03-28T06:04:27.686Z,96457.00
2024-03-28T06:05:27.677Z,96452.00
2024-03-28T06:06:27.645Z,96447.00
2024-03-28T06:07:27.675Z,96447.00
2024-03-28T06:08:27.634Z,96450.00
2024-03-28T06:09:27.666Z,96452.00
2024-03-28T06:10:27.682Z,96455.00
2024-03-28T06:11:27.655Z,96457.00
2024-03-28T06:12:27.686Z,96461.00
2024-03-28T06:13:27.752Z,96460.00
2024-03-28T06:14:27.679Z,96459.00
2024-03-28T06:15:27.709Z,96462.00
2024-03-28T06:16:27.716Z,96465.00
2024-03-28T06:17:27.723Z,96461.00
2024-03-28T06:18:27.768Z,96463.00
2024-03-28T06:19:27.784Z,96463.00
2024-03-28T06:20:27.808Z,96466.00
2024-03-28T06:21:27.797Z,96467.00
2024-03-28T06:22:27.834Z,96463.00
2024-03-28T06:23:27.826Z,96463.00
2024-03-28T06:24:27.840Z,96467.00
2024-03-28T06:25:27.904Z,96467.00
2024-03-28T06:26:27.924Z,96468.00
2024-03-28T06:27:27.894Z,96466.00
2024-03-28T06:28:27.958Z,96469.00
2024-03-28T06:29:27.922Z,96471.00
2024-03-28T06:30:27.913Z,96473.00
2024-03-28T06:31:27.926Z,96475.00
2024-03-28T06:32:27.926Z,96476.00
2024-03-28T06:33:27.922Z,96474.00
2024-03-28T06:34:27.950Z,96474.00
2024-03-28T06:35:27.944Z,96477.00
2024-03-28T06:36:27.952Z,96476.00
2024-03-28T06:37:27.947Z,96487.00
2024-03-28T06:38:27.966Z,96491.00
2024-03-28T06:39:27.960Z,96496.00
2024-03-28T06:40:27.996Z,96501.00
2024-03-28T06:41:28.033Z,96505.00
2024-03-28T06:42:27.998Z,96501.00
2024-03-28T06:43:28.049Z,96504.00
2024-03-28T06:44:28.070Z,96505.00
2024-03-28T06:45:28.151Z,96503.00
2024-03-28T06:46:28.217Z,96503.00
2024-03-28T06:47:28.133Z,96500.00
2024-03-28T06:48:28.136Z,96498.00
2024-03-28T06:49:28.238Z,96500.00
2024-03-28T06:50:28.265Z,96505.00
2024-03-28T06:51:28.186Z,96506.00
2024-03-28T06:52:28.168Z,96503.00
2024-03-28T06:53:28.255Z,96509.00
2024-03-28T06:54:28.178Z,96510.00
2024-03-28T06:55:28.210Z,96513.00
2024-03-28T06:56:28.191Z,96516.00
2024-03-28T06:57:28.197Z,96517.00
2024-03-28T06:58:28.260Z,96515.00
2024-03-28T06:59:28.193Z,96511.00
2024-03-28T07:00:28.181Z,96516.00
2024-03-28T07:01:28.209Z,96512.00
2024-03-28T07:02:28.222Z,96505.00
2024-03-28T07:03:28.193Z,96510.00
2024-03-28T07:04:28.262Z,96506.00
2024-03-28T07:05:28.209Z,96501.00
2024-03-28T07:06:28.244Z,96504.00
2024-03-28T07:07:28.304Z,96500.00
2024-03-28T07:08:28.260Z,96506.00
2024-03-28T07:09:28.282Z,96501.00
2024-03-28T07:10:28.301Z,96498.00
2024-03-28T07:11:28.268Z,96500.00
2024-03-28T07:12:28.308Z,96500.00
2024-03-28T07:13:28.313Z,96496.00
2024-03-28T07:14:28.321Z,96488.00
2024-03-28T07:15:28.297Z,96487.00
2024-03-28T07:16:28.347Z,96490.00
2024-03-28T07:17:28.334Z,96495.00
2024-03-28T07:18:28.347Z,96493.00
2024-03-28T07:19:28.343Z,96492.00
2024-03-28T07:20:28.349Z,96494.00
2024-03-28T07:21:28.354Z,96494.00
2024-03-28T07:22:28.400Z,96500.00
2024-03-28T07:23:28.430Z,96499.00
2024-03-28T07:24:28.418Z,96498.00
2024-03-28T07:25:28.475Z,96496.00
2024-03-28T07:26:28.458Z,96495.00
2024-03-28T07:27:28.420Z,96492.00
2024-03-28T07:28:28.449Z,96485.00
2024-03-28T07:29:28.434Z,96488.00
2024-03-28T07:30:28.430Z,96494.00
2024-03-28T07:31:28.457Z,96493.00
2024-03-28T07:32:28.469Z,96493.00
2024-03-28T07:33:28.444Z,96496.00
2024-03-28T07:34:28.475Z,96500.00
2024-03-28T07:35:29.183Z,96494.00
2024-03-28T07:36:28.451Z,96494.00
2024-03-28T07:37:28.511Z,96489.00
2024-03-28T07:38:28.474Z,96492.00
2024-03-28T07:39:28.475Z,96498.00
2024-03-28T07:40:28.526Z,96503.00
2024-03-28T07:41:28.550Z,96499.00
2024-03-28T07:42:28.539Z,96497.00
2024-03-28T07:43:28.599Z,96501.00
2024-03-28T07:44:28.534Z,96501.00
2024-03-28T07:45:28.574Z,96503.00
2024-03-28T07:46:28.641Z,96509.00
2024-03-28T07:47:28.663Z,96508.00
2024-03-28T07:48:28.591Z,96515.00
2024-03-28T07:49:28.665Z,96512.00
2024-03-28T07:50:28.623Z,96518.00
2024-03-28T07:51:28.616Z,96522.00
2024-03-28T07:52:28.660Z,96523.00
2024-03-28T07:53:28.624Z,96525.00
2024-03-28T07:54:28.674Z,96524.00
2024-03-28T07:55:28.663Z,96518.00
2024-03-28T07:56:28.676Z,96524.00
2024-03-28T07:57:28.686Z,96519.00
2024-03-28T07:58:28.743Z,96523.00
2024-03-28T07:59:28.716Z,96521.00
2024-03-28T08:00:28.731Z,96522.00
2024-03-28T08:01:29.343Z,96521.00
2024-03-28T08:02:28.745Z,96522.00
2024-03-28T08:03:28.744Z,96523.00
2024-03-28T08:04:28.813Z,96526.00
2024-03-28T08:05:28.789Z,96523.00
2024-03-28T08:06:28.814Z,96529.00
2024-03-28T08:07:28.848Z,96530.00
2024-03-28T08:08:28.867Z,96539.00
2024-03-28T08:09:28.906Z,96543.00
2024-03-28T08:10:28.929Z,96545.00
2024-03-28T08:11:28.893Z,96545.00
2024-03-28T08:12:28.926Z,96547.00
2024-03-28T08:13:28.991Z,96547.00
2024-03-28T08:14:28.974Z,96549.00
2024-03-28T08:15:28.949Z,96548.00
2024-03-28T08:16:29.000Z,96544.00
2024-03-28T08:18:29.029Z,96546.00
2024-03-28T08:19:29.117Z,96546.00
2024-03-28T08:20:29.069Z,96544.00
2024-03-28T08:21:29.040Z,96541.00
2024-03-28T08:22:29.060Z,96540.00
2024-03-28T08:23:29.050Z,96539.00
2024-03-28T08:24:29.047Z,96534.00
2024-03-28T08:25:29.078Z,96539.00
2024-03-28T08:26:29.082Z,96536.00
2024-03-28T08:27:29.068Z,96532.00
2024-03-28T08:28:29.084Z,96539.00
2024-03-28T08:29:29.034Z,96539.00
2024-03-28T08:30:29.089Z,96542.00
2024-03-28T08:31:29.129Z,96546.00
2024-03-28T08:32:29.135Z,96548.00
2024-03-28T08:33:29.107Z,96557.00
2024-03-28T08:34:29.113Z,96560.00
2024-03-28T08:35:29.154Z,96566.00
2024-03-28T08:36:29.178Z,96565.00
2024-03-28T08:37:29.212Z,96571.00
2024-03-28T08:38:29.271Z,96583.00
2024-03-28T08:39:29.252Z,96586.00
2024-03-28T08:40:29.295Z,96585.00
2024-03-28T08:41:29.295Z,96584.00
2024-03-28T08:42:29.332Z,96590.00
2024-03-28T08:43:29.340Z,96592.00
2024-03-28T08:44:29.336Z,96581.00
2024-03-28T08:45:29.395Z,96595.00
2024-03-28T08:46:29.428Z,96597.00
2024-03-28T08:47:29.416Z,96603.00
2024-03-28T08:48:29.423Z,96609.00
2024-03-28T08:49:29.422Z,96605.00
2024-03-28T08:50:29.401Z,96615.00
2024-03-28T08:51:29.438Z,96626.00
2024-03-28T08:52:29.451Z,96621.00
2024-03-28T08:53:29.451Z,96620.00
2024-03-28T08:54:29.457Z,96624.00
2024-03-28T08:55:29.475Z,96625.00
2024-03-28T08:56:31.350Z,96628.00
2024-03-28T08:57:29.487Z,96636.00
2024-03-28T08:58:29.513Z,96631.00
2024-03-28T08:59:29.493Z,96636.00
2024-03-28T09:00:29.535Z,96639.00
2024-03-28T09:01:29.514Z,96643.00
2024-03-28T09:02:29.558Z,96646.00
2024-03-28T09:03:29.549Z,96647.00
2024-03-28T09:04:29.599Z,96651.00
2024-03-28T09:05:29.609Z,96646.00
2024-03-28T09:06:29.682Z,96651.00
2024-03-28T09:07:29.598Z,96653.00
2024-03-28T09:08:29.599Z,96662.00
2024-03-28T09:09:29.587Z,96657.00
2024-03-28T09:10:29.623Z,96664.00
2024-03-28T09:11:29.617Z,96667.00
2024-03-28T09:12:29.698Z,96670.00
2024-03-28T09:13:29.687Z,96660.00
2024-03-28T09:14:29.718Z,96660.00
2024-03-28T09:15:29.732Z,96661.00
2024-03-28T09:16:29.775Z,96664.00
2024-03-28T09:17:29.734Z,96662.00
2024-03-28T09:18:29.734Z,96659.00
2024-03-28T09:19:29.752Z,96655.00
2024-03-28T09:20:29.773Z,96656.00
2024-03-28T09:21:29.754Z,96662.00
2024-03-28T09:22:29.771Z,96667.00
2024-03-28T09:23:29.762Z,96667.00
2024-03-28T09:24:29.736Z,96664.00
2024-03-28T09:25:29.737Z,96666.00
2024-03-28T09:26:29.753Z,96675.00
2024-03-28T09:27:29.729Z,96685.00
2024-03-28T09:28:29.740Z,96700.00
2024-03-28T09:29:29.746Z,96711.00
2024-03-28T09:30:29.770Z,96716.00
2024-03-28T09:31:29.777Z,96718.00
2024-03-28T09:32:29.804Z,96716.00
2024-03-28T09:33:29.798Z,96715.00
2024-03-28T09:34:29.833Z,96713.00
2024-03-28T09:35:29.814Z,96713.00
2024-03-28T09:36:29.854Z,96706.00
2024-03-28T09:37:29.899Z,96696.00
2024-03-28T09:38:29.874Z,96673.00
2024-03-28T09:39:29.894Z,96661.00
2024-03-28T09:40:29.928Z,96678.00
2024-03-28T09:41:29.917Z,96682.00
2024-03-28T09:42:29.941Z,96687.00
2024-03-28T09:43:29.919Z,96695.00
2024-03-28T09:44:29.936Z,96706.00
2024-03-28T09:45:29.963Z,96717.00
2024-03-28T09:46:29.969Z,96729.00
2024-03-28T09:47:29.988Z,96732.00
2024-03-28T09:48:29.955Z,96731.00
2024-03-28T09:49:30.060Z,96729.00
2024-03-28T09:50:29.978Z,96733.00
2024-03-28T09:51:29.999Z,96736.00
2024-03-28T09:52:30.005Z,96736.00
2024-03-28T09:53:30.012Z,96742.00
2024-03-28T09:54:30.027Z,96742.00
2024-03-28T09:55:30.061Z,96740.00
2024-03-28T09:56:30.039Z,96738.00
2024-03-28T09:58:30.053Z,96734.00
2024-03-28T09:59:30.069Z,96730.00
2024-03-28T10:01:30.078Z,96740.00
2024-03-28T10:02:30.154Z,96746.00
2024-03-28T10:03:30.126Z,96747.00
2024-03-28T10:04:30.162Z,96742.00
2024-03-28T10:05:30.138Z,96741.00
2024-03-28T10:06:30.178Z,96745.00
2024-03-28T10:07:30.172Z,96753.00
2024-03-28T10:08:30.212Z,96749.00
2024-03-28T10:09:30.188Z,96757.00
2024-03-28T10:10:30.226Z,96755.00
2024-03-28T10:11:30.222Z,96751.00
2024-03-28T10:12:30.239Z,96757.00
2024-03-28T10:13:30.265Z,96762.00
2024-03-28T10:14:30.273Z,96760.00
2024-03-28T10:15:30.332Z,96761.00
2024-03-28T10:16:30.378Z,96766.00
2024-03-28T10:17:30.361Z,96765.00
2024-03-28T10:18:30.362Z,96761.00
2024-03-28T10:19:30.369Z,96754.00
2024-03-28T10:20:30.366Z,96760.00
2024-03-28T10:21:30.372Z,96760.00
2024-03-28T10:22:30.387Z,96764.00
2024-03-28T10:23:30.389Z,96753.00
2024-03-28T10:24:30.383Z,96756.00
2024-03-28T10:25:30.425Z,96757.00
2024-03-28T10:26:30.377Z,96765.00
2024-03-28T10:27:30.413Z,96766.00
2024-03-28T10:28:30.433Z,96769.00
2024-03-28T10:29:30.431Z,96763.00
2024-03-28T10:30:30.405Z,96764.00
2024-03-28T10:31:30.459Z,96769.00
2024-03-28T10:32:30.449Z,96768.00
2024-03-28T10:34:30.499Z,96778.00
2024-03-28T10:35:30.493Z,96780.00
2024-03-28T10:36:30.490Z,96790.00
2024-03-28T10:37:36.794Z,96785.00
2024-03-28T10:38:30.563Z,96789.00
2024-03-28T10:40:30.544Z,96783.00
2024-03-28T10:41:30.574Z,96782.00
2024-03-28T10:42:30.617Z,96785.00
2024-03-28T10:43:30.621Z,96792.00
2024-03-28T10:44:30.635Z,96794.00
2024-03-28T10:45:30.607Z,96806.00
2024-03-28T10:46:30.597Z,96794.00
2024-03-28T10:47:30.698Z,96783.00
2024-03-28T10:48:30.610Z,96790.00
2024-03-28T10:49:30.665Z,96797.00
2024-03-28T10:50:30.675Z,96792.00
2024-03-28T10:51:30.687Z,96789.00
2024-03-28T10:52:30.697Z,96791.00
2024-03-28T10:53:30.667Z,96786.00
2024-03-28T10:54:30.703Z,96790.00
2024-03-28T10:55:32.739Z,96787.00
2024-03-28T10:56:30.685Z,96796.00
2024-03-28T10:57:30.736Z,96796.00
2024-03-28T10:58:30.763Z,96779.00
2024-03-28T10:59:30.779Z,96783.00
2024-03-28T11:00:30.774Z,96784.00
2024-03-28T11:01:32.876Z,96787.00
2024-03-28T11:02:30.795Z,96795.00
2024-03-28T11:03:30.790Z,96796.00
2024-03-28T11:04:31.422Z,96789.00
2024-03-28T11:05:30.802Z,96783.00
2024-03-28T11:06:30.839Z,96770.00
2024-03-28T11:07:30.854Z,96781.00
2024-03-28T11:08:30.893Z,96773.00
2024-03-28T11:09:30.911Z,96777.00
2024-03-28T11:10:30.949Z,96772.00
2024-03-28T11:11:30.959Z,96772.00
2024-03-28T11:12:30.950Z,96754.00
2024-03-28T11:13:30.966Z,96752.00
2024-03-28T11:14:30.982Z,96761.00
2024-03-28T11:15:30.981Z,96762.00
2024-03-28T11:16:31.008Z,96768.00
2024-03-28T11:17:31.026Z,96775.00
2024-03-28T11:18:31.004Z,96759.00
2024-03-28T11:19:33.538Z,96768.00
2024-03-28T11:20:31.047Z,96772.00
2024-03-28T11:21:31.026Z,96767.00
2024-03-28T11:22:31.079Z,96775.00
2024-03-28T11:23:31.005Z,96783.00
2024-03-28T11:24:31.054Z,96772.00
2024-03-28T11:25:31.080Z,96785.00
2024-03-28T11:26:31.093Z,96775.00
2024-03-28T11:27:31.057Z,96777.00
2024-03-28T11:28:31.081Z,96772.00
2024-03-28T11:29:31.080Z,96772.00
2024-03-28T11:30:31.116Z,96771.00
2024-03-28T11:31:31.175Z,96772.00
2024-03-28T11:32:31.141Z,96771.00
2024-03-28T11:33:31.166Z,96774.00
2024-03-28T11:34:31.254Z,96774.00
2024-03-28T11:35:31.187Z,96780.00
2024-03-28T11:36:31.225Z,96778.00
2024-03-28T11:37:31.213Z,96780.00
2024-03-28T11:38:31.222Z,96777.00
2024-03-28T11:39:31.238Z,96787.00
2024-03-28T11:40:31.274Z,96783.00
2024-03-28T11:41:31.282Z,96786.00
2024-03-28T11:43:31.364Z,96772.00
2024-03-28T11:44:31.294Z,96772.00
2024-03-28T11:45:31.903Z,96773.00
2024-03-28T11:46:31.305Z,96771.00
2024-03-28T11:47:33.077Z,96767.00
2024-03-28T11:48:31.356Z,96775.00
2024-03-28T11:49:31.478Z,96776.00
2024-03-28T11:50:31.674Z,96775.00
2024-03-28T11:51:31.362Z,96776.00
2024-03-28T11:52:31.383Z,96785.00
2024-03-28T11:53:31.363Z,96791.00
2024-03-28T11:54:31.396Z,96783.00
2024-03-28T11:55:31.373Z,96786.00
2024-03-28T11:56:32.321Z,96785.00
2024-03-28T11:57:31.474Z,96779.00
2024-03-28T11:58:31.481Z,96790.00
2024-03-28T11:59:31.462Z,96786.00
2024-03-28T12:00:31.489Z,96782.00
2024-03-28T12:01:31.474Z,96783.00
2024-03-28T12:02:31.485Z,96784.00
2024-03-28T12:03:31.519Z,96779.00